Terminal Aerodrome Forecast
Issued by NWS

Home | Current Version | Previous Version | Text Only | Print | Product List | Glossary Off
Versions: 1 2 3 4 5 6 7 8 9 10 11 12 13 14 15 16 17 18 19

000
FTUS43 KTOP 291700
TAFMHK
TAF
KMHK 291720Z 2918/3018 23008KT P6SM SCT100
     FM292200 26008KT P6SM BKN100
     FM300600 33002KT P6SM SCT250=

USA.gov is the U.S. government's official web portal to all federal, state and local government web resources and services.